sensor_id;sensor_type;location;lat;lon;timestamp;pressure;altitude;pressure_sealevel;temperature;humidity
57432;BME280;66326;40.370;-3.718;2023-01-05T00:01:49;96140.25;;;17.42;75.25
57432;BME280;66326;40.370;-3.718;2023-01-05T00:04:16;96129.22;;;17.42;75.42
57432;BME280;66326;40.370;-3.718;2023-01-05T00:06:44;96127.28;;;17.43;75.32
57432;BME280;66326;40.370;-3.718;2023-01-05T00:09:13;96126.47;;;17.42;75.38
57432;BME280;66326;40.370;-3.718;2023-01-05T00:11:41;96124.50;;;17.43;75.38
57432;BME280;66326;40.370;-3.718;2023-01-05T00:14:29;96122.94;;;17.42;75.29
57432;BME280;66326;40.370;-3.718;2023-01-05T00:17:17;96120.94;;;17.42;75.37
57432;BME280;66326;40.370;-3.718;2023-01-05T00:20:04;96127.28;;;17.43;75.36
57432;BME280;66326;40.370;-3.718;2023-01-05T00:22:52;96121.75;;;17.43;75.33
57432;BME280;66326;40.370;-3.718;2023-01-05T00:25:28;96120.19;;;17.42;75.21
57432;BME280;66326;40.370;-3.718;2023-01-05T00:27:55;96110.72;;;17.43;75.26
57432;BME280;66326;40.370;-3.718;2023-01-05T00:30:27;96112.69;;;17.42;75.25
57432;BME280;66326;40.370;-3.718;2023-01-05T00:32:54;96118.19;;;17.42;75.40
57432;BME280;66326;40.370;-3.718;2023-01-05T00:35:22;96112.69;;;17.42;75.14
57432;BME280;66326;40.370;-3.718;2023-01-05T00:37:50;96111.50;;;17.43;75.31
57432;BME280;66326;40.370;-3.718;2023-01-05T00:40:20;96108.75;;;17.43;75.13
57432;BME280;66326;40.370;-3.718;2023-01-05T00:42:47;96099.69;;;17.43;75.10
57432;BME280;66326;40.370;-3.718;2023-01-05T00:45:16;96093.38;;;17.42;75.28
57432;BME280;66326;40.370;-3.718;2023-01-05T00:47:44;96101.66;;;17.42;75.00
57432;BME280;66326;40.370;-3.718;2023-01-05T00:50:16;96093.38;;;17.42;75.25
57432;BME280;66326;40.370;-3.718;2023-01-05T00:52:43;96089.44;;;17.43;75.24
57432;BME280;66326;40.370;-3.718;2023-01-05T00:55:11;96085.13;;;17.42;75.36
57432;BME280;66326;40.370;-3.718;2023-01-05T00:57:38;96085.91;;;17.43;75.32
57432;BME280;66326;40.370;-3.718;2023-01-05T01:00:09;96079.59;;;17.42;75.08
57432;BME280;66326;40.370;-3.718;2023-01-05T01:02:37;96076.84;;;17.42;75.20
57432;BME280;66326;40.370;-3.718;2023-01-05T01:05:05;96072.91;;;17.43;75.15
57432;BME280;66326;40.370;-3.718;2023-01-05T01:07:32;96068.56;;;17.42;75.06
57432;BME280;66326;40.370;-3.718;2023-01-05T01:09:59;96069.38;;;17.43;75.20
57432;BME280;66326;40.370;-3.718;2023-01-05T01:12:26;96070.16;;;17.43;75.23
57432;BME280;66326;40.370;-3.718;2023-01-05T01:14:53;96057.56;;;17.42;75.07
57432;BME280;66326;40.370;-3.718;2023-01-05T01:17:20;96064.25;;;17.41;74.92
57432;BME280;66326;40.370;-3.718;2023-01-05T01:19:46;96055.97;;;17.41;74.96
57432;BME280;66326;40.370;-3.718;2023-01-05T01:22:13;96063.06;;;17.42;75.18
57432;BME280;66326;40.370;-3.718;2023-01-05T01:24:41;96060.31;;;17.42;74.85
57432;BME280;66326;40.370;-3.718;2023-01-05T01:27:08;96055.97;;;17.41;74.89
57432;BME280;66326;40.370;-3.718;2023-01-05T01:29:35;96063.06;;;17.42;74.92
57432;BME280;66326;40.370;-3.718;2023-01-05T01:32:02;96059.53;;;17.42;74.84
57432;BME280;66326;40.370;-3.718;2023-01-05T01:34:29;96067.81;;;17.42;74.99
57432;BME280;66326;40.370;-3.718;2023-01-05T01:36:57;96058.72;;;17.41;74.79
57432;BME280;66326;40.370;-3.718;2023-01-05T01:39:30;96060.72;;;17.41;74.75
57432;BME280;66326;40.370;-3.718;2023-01-05T01:42:05;96067.00;;;17.41;74.99
57432;BME280;66326;40.370;-3.718;2023-01-05T01:44:56;96060.72;;;17.41;74.73
57432;BME280;66326;40.370;-3.718;2023-01-05T01:47:50;96052.44;;;17.41;74.88
57432;BME280;66326;40.370;-3.718;2023-01-05T01:50:26;96062.66;;;17.40;74.75
57432;BME280;66326;40.370;-3.718;2023-01-05T01:53:02;96062.66;;;17.40;74.93
57432;BME280;66326;40.370;-3.718;2023-01-05T01:55:30;96054.38;;;17.40;74.88
57432;BME280;66326;40.370;-3.718;2023-01-05T01:57:59;96060.72;;;17.41;74.97
57432;BME280;66326;40.370;-3.718;2023-01-05T02:00:27;96057.16;;;17.40;74.72
57432;BME280;66326;40.370;-3.718;2023-01-05T02:02:55;96056.38;;;17.40;74.82
57432;BME280;66326;40.370;-3.718;2023-01-05T02:05:27;96054.38;;;17.40;74.72
57432;BME280;66326;40.370;-3.718;2023-01-05T02:07:55;96054.38;;;17.40;74.68
57432;BME280;66326;40.370;-3.718;2023-01-05T02:15:54;96054.38;;;17.40;74.49
57432;BME280;66326;40.370;-3.718;2023-01-05T02:23:55;96054.03;;;17.38;74.78
57432;BME280;66326;40.370;-3.718;2023-01-05T02:35:09;96041.41;;;17.37;74.52
57432;BME280;66326;40.370;-3.718;2023-01-05T02:37:46;96041.41;;;17.37;74.62
57432;BME280;66326;40.370;-3.718;2023-01-05T02:40:33;96039.44;;;17.38;74.47
57432;BME280;66326;40.370;-3.718;2023-01-05T02:43:03;96030.38;;;17.37;74.76
57432;BME280;66326;40.370;-3.718;2023-01-05T02:45:31;96031.16;;;17.38;74.52
57432;BME280;66326;40.370;-3.718;2023-01-05T02:47:59;96033.16;;;17.37;74.43
57432;BME280;66326;40.370;-3.718;2023-01-05T02:50:46;96028.41;;;17.38;74.66
57432;BME280;66326;40.370;-3.718;2023-01-05T02:53:42;96033.16;;;17.37;74.25
57432;BME280;66326;40.370;-3.718;2023-01-05T02:56:27;96026.06;;;17.36;74.25
57432;BME280;66326;40.370;-3.718;2023-01-05T02:59:06;96024.06;;;17.37;74.81
57432;BME280;66326;40.370;-3.718;2023-01-05T03:01:55;96017.78;;;17.36;74.50
57432;BME280;66326;40.370;-3.718;2023-01-05T03:04:30;96023.31;;;17.36;74.53
57432;BME280;66326;40.370;-3.718;2023-01-05T03:07:11;96022.53;;;17.36;74.23
57432;BME280;66326;40.370;-3.718;2023-01-05T03:09:40;96020.53;;;17.36;74.42
57432;BME280;66326;40.370;-3.718;2023-01-05T03:15:13;96019.78;;;17.36;74.51
57432;BME280;66326;40.370;-3.718;2023-01-05T03:17:50;96019.78;;;17.36;74.71
57432;BME280;66326;40.370;-3.718;2023-01-05T03:20:23;96014.25;;;17.36;74.56
57432;BME280;66326;40.370;-3.718;2023-01-05T03:22:54;96013.44;;;17.35;74.35
57432;BME280;66326;40.370;-3.718;2023-01-05T03:25:42;96014.25;;;17.36;74.26
57432;BME280;66326;40.370;-3.718;2023-01-05T03:28:42;96016.22;;;17.35;74.14
57432;BME280;66326;40.370;-3.718;2023-01-05T03:31:38;96006.38;;;17.34;74.44
57432;BME280;66326;40.370;-3.718;2023-01-05T03:37:26;96006.38;;;17.34;74.12
57432;BME280;66326;40.370;-3.718;2023-01-05T03:39:58;96000.06;;;17.34;74.15
57432;BME280;66326;40.370;-3.718;2023-01-05T03:42:29;96004.00;;;17.33;74.46
57432;BME280;66326;40.370;-3.718;2023-01-05T03:44:58;95993.75;;;17.33;74.21
57432;BME280;66326;40.370;-3.718;2023-01-05T03:47:27;95993.75;;;17.33;74.03
57432;BME280;66326;40.370;-3.718;2023-01-05T03:49:53;95994.94;;;17.32;74.29
57432;BME280;66326;40.370;-3.718;2023-01-05T03:52:20;95987.47;;;17.33;74.15
57432;BME280;66326;40.370;-3.718;2023-01-05T03:54:47;95990.22;;;17.33;73.88
57432;BME280;66326;40.370;-3.718;2023-01-05T03:57:14;95991.00;;;17.33;74.29
57432;BME280;66326;40.370;-3.718;2023-01-05T03:59:42;95986.66;;;17.32;74.27
57432;BME280;66326;40.370;-3.718;2023-01-05T04:02:09;95982.38;;;17.31;74.28
57432;BME280;66326;40.370;-3.718;2023-01-05T04:04:36;95987.88;;;17.31;74.41
57432;BME280;66326;40.370;-3.718;2023-01-05T04:07:06;95985.50;;;17.33;74.27
57432;BME280;66326;40.370;-3.718;2023-01-05T04:09:34;95983.91;;;17.32;74.17
57432;BME280;66326;40.370;-3.718;2023-01-05T04:12:01;95986.66;;;17.32;74.04
57432;BME280;66326;40.370;-3.718;2023-01-05T04:14:32;95989.44;;;17.32;74.02
57432;BME280;66326;40.370;-3.718;2023-01-05T04:16:59;95986.66;;;17.32;73.94
57432;BME280;66326;40.370;-3.718;2023-01-05T04:19:26;95990.63;;;17.31;74.06
57432;BME280;66326;40.370;-3.718;2023-01-05T04:21:54;95980.38;;;17.32;74.18
57432;BME280;66326;40.370;-3.718;2023-01-05T04:24:22;95988.66;;;17.32;74.10
57432;BME280;66326;40.370;-3.718;2023-01-05T04:26:49;95990.63;;;17.31;73.72
57432;BME280;66326;40.370;-3.718;2023-01-05T04:29:19;95986.31;;;17.30;74.11
57432;BME280;66326;40.370;-3.718;2023-01-05T04:31:48;95978.03;;;17.30;73.98
57432;BME280;66326;40.370;-3.718;2023-01-05T04:34:16;95975.28;;;17.30;73.92
57432;BME280;66326;40.370;-3.718;2023-01-05T04:36:43;95985.13;;;17.31;73.85
57432;BME280;66326;40.370;-3.718;2023-01-05T04:39:15;95982.38;;;17.31;73.78
57432;BME280;66326;40.370;-3.718;2023-01-05T04:41:42;95976.06;;;17.31;73.97
57432;BME280;66326;40.370;-3.718;2023-01-05T04:44:10;95981.56;;;17.31;73.75
57432;BME280;66326;40.370;-3.718;2023-01-05T04:46:37;95979.97;;;17.30;73.79
57432;BME280;66326;40.370;-3.718;2023-01-05T04:49:04;95968.97;;;17.30;73.96
57432;BME280;66326;40.370;-3.718;2023-01-05T04:51:31;95980.78;;;17.30;73.75
57432;BME280;66326;40.370;-3.718;2023-01-05T04:53:58;95980.78;;;17.30;73.89
57432;BME280;66326;40.370;-3.718;2023-01-05T04:56:25;95977.22;;;17.30;73.79
57432;BME280;66326;40.370;-3.718;2023-01-05T04:58:52;95976.47;;;17.29;73.52
57432;BME280;66326;40.370;-3.718;2023-01-05T05:01:19;95977.22;;;17.30;73.80
57432;BME280;66326;40.370;-3.718;2023-01-05T05:03:51;95968.19;;;17.29;73.75
57432;BME280;66326;40.370;-3.718;2023-01-05T05:06:20;95973.69;;;17.29;73.53
57432;BME280;66326;40.370;-3.718;2023-01-05T05:08:48;95971.72;;;17.30;73.88
57432;BME280;66326;40.370;-3.718;2023-01-05T05:11:16;95974.47;;;17.30;73.97
57432;BME280;66326;40.370;-3.718;2023-01-05T05:13:45;95965.81;;;17.27;73.74
57432;BME280;66326;40.370;-3.718;2023-01-05T05:16:13;95974.88;;;17.28;73.62
57432;BME280;66326;40.370;-3.718;2023-01-05T05:18:42;95968.19;;;17.29;73.64
57432;BME280;66326;40.370;-3.718;2023-01-05T05:21:14;95961.09;;;17.28;73.82
57432;BME280;66326;40.370;-3.718;2023-01-05T05:23:41;95977.63;;;17.28;73.92
57432;BME280;66326;40.370;-3.718;2023-01-05T05:26:08;95975.66;;;17.29;73.77
57432;BME280;66326;40.370;-3.718;2023-01-05T05:28:35;95983.16;;;17.28;73.88
57432;BME280;66326;40.370;-3.718;2023-01-05T05:31:02;95986.69;;;17.29;73.86
57432;BME280;66326;40.370;-3.718;2023-01-05T05:33:29;95983.16;;;17.28;74.03
57432;BME280;66326;40.370;-3.718;2023-01-05T05:35:56;95980.38;;;17.28;73.59
57432;BME280;66326;40.370;-3.718;2023-01-05T05:38:23;95977.63;;;17.28;73.81
57432;BME280;66326;40.370;-3.718;2023-01-05T05:40:49;95974.06;;;17.27;73.92
57432;BME280;66326;40.370;-3.718;2023-01-05T05:43:16;95972.91;;;17.29;73.84
57432;BME280;66326;40.370;-3.718;2023-01-05T05:45:43;95977.63;;;17.28;73.81
57432;BME280;66326;40.370;-3.718;2023-01-05T05:48:16;95975.66;;;17.29;73.55
57432;BME280;66326;40.370;-3.718;2023-01-05T05:50:44;95974.06;;;17.27;74.01
57432;BME280;66326;40.370;-3.718;2023-01-05T05:53:11;95983.16;;;17.28;73.59
57432;BME280;66326;40.370;-3.718;2023-01-05T05:55:39;95976.06;;;17.27;73.94
57432;BME280;66326;40.370;-3.718;2023-01-05T05:58:05;95981.16;;;17.29;73.91
57432;BME280;66326;40.370;-3.718;2023-01-05T06:00:32;95974.88;;;17.28;73.81
57432;BME280;66326;40.370;-3.718;2023-01-05T06:02:59;95981.16;;;17.29;73.70
57432;BME280;66326;40.370;-3.718;2023-01-05T06:05:27;95980.38;;;17.28;73.59
57432;BME280;66326;40.370;-3.718;2023-01-05T06:07:54;95974.88;;;17.28;73.63
57432;BME280;66326;40.370;-3.718;2023-01-05T06:10:21;95976.06;;;17.27;73.63
57432;BME280;66326;40.370;-3.718;2023-01-05T06:12:48;95976.06;;;17.27;73.77
57432;BME280;66326;40.370;-3.718;2023-01-05T06:15:15;95977.63;;;17.28;73.81
57432;BME280;66326;40.370;-3.718;2023-01-05T06:17:41;95982.34;;;17.27;73.91
57432;BME280;66326;40.370;-3.718;2023-01-05T06:20:09;95979.59;;;17.27;73.85
57432;BME280;66326;40.370;-3.718;2023-01-05T06:22:36;95982.34;;;17.27;73.72
57432;BME280;66326;40.370;-3.718;2023-01-05T06:25:03;95985.91;;;17.28;73.89
57432;BME280;66326;40.370;-3.718;2023-01-05T06:27:30;95986.31;;;17.26;73.85
57432;BME280;66326;40.370;-3.718;2023-01-05T06:29:57;95987.84;;;17.27;73.63
57432;BME280;66326;40.370;-3.718;2023-01-05T06:32:24;95994.16;;;17.28;73.84
57432;BME280;66326;40.370;-3.718;2023-01-05T06:34:51;95994.94;;;17.29;73.53
57432;BME280;66326;40.370;-3.718;2023-01-05T06:37:18;96002.84;;;17.26;73.74
57432;BME280;66326;40.370;-3.718;2023-01-05T06:39:44;96000.84;;;17.27;73.84
57432;BME280;66326;40.370;-3.718;2023-01-05T06:42:11;96000.84;;;17.27;73.54
57432;BME280;66326;40.370;-3.718;2023-01-05T06:44:38;95997.31;;;17.26;73.62
57432;BME280;66326;40.370;-3.718;2023-01-05T06:47:05;95999.69;;;17.28;73.59
57432;BME280;66326;40.370;-3.718;2023-01-05T06:49:32;96004.38;;;17.27;73.69
57432;BME280;66326;40.370;-3.718;2023-01-05T06:51:59;96006.38;;;17.27;73.63
57432;BME280;66326;40.370;-3.718;2023-01-05T06:54:26;96005.19;;;17.28;73.79
57432;BME280;66326;40.370;-3.718;2023-01-05T06:56:53;96002.44;;;17.28;73.90
57432;BME280;66326;40.370;-3.718;2023-01-05T06:59:19;96007.94;;;17.28;73.82
57432;BME280;66326;40.370;-3.718;2023-01-05T07:01:46;96001.63;;;17.27;73.83
57432;BME280;66326;40.370;-3.718;2023-01-05T07:04:13;96002.44;;;17.28;73.88
57432;BME280;66326;40.370;-3.718;2023-01-05T07:06:41;95996.94;;;17.28;73.99
57432;BME280;66326;40.370;-3.718;2023-01-05T07:09:08;95996.94;;;17.28;73.60
57432;BME280;66326;40.370;-3.718;2023-01-05T07:11:35;95999.28;;;17.30;73.84
57432;BME280;66326;40.370;-3.718;2023-01-05T07:14:02;95999.28;;;17.30;73.96
57432;BME280;66326;40.370;-3.718;2023-01-05T07:16:28;96001.25;;;17.29;73.81
57432;BME280;66326;40.370;-3.718;2023-01-05T07:18:55;95996.53;;;17.30;73.89
57432;BME280;66326;40.370;-3.718;2023-01-05T07:21:22;95994.56;;;17.30;73.83
57432;BME280;66326;40.370;-3.718;2023-01-05T07:23:49;95997.31;;;17.30;73.95
57432;BME280;66326;40.370;-3.718;2023-01-05T07:26:16;95999.28;;;17.30;73.92
57432;BME280;66326;40.370;-3.718;2023-01-05T07:28:43;95999.28;;;17.30;73.87
57432;BME280;66326;40.370;-3.718;2023-01-05T07:31:10;95993.75;;;17.30;74.14
57432;BME280;66326;40.370;-3.718;2023-01-05T07:33:37;96000.84;;;17.31;73.97
57432;BME280;66326;40.370;-3.718;2023-01-05T07:36:06;96002.84;;;17.30;73.82
57432;BME280;66326;40.370;-3.718;2023-01-05T07:38:33;96001.66;;;17.31;73.94
57432;BME280;66326;40.370;-3.718;2023-01-05T07:41:01;95998.09;;;17.31;73.90
57432;BME280;66326;40.370;-3.718;2023-01-05T07:43:29;96002.84;;;17.30;74.10
57432;BME280;66326;40.370;-3.718;2023-01-05T07:45:59;96002.84;;;17.30;73.71
57432;BME280;66326;40.370;-3.718;2023-01-05T07:48:27;95997.31;;;17.30;73.44
57432;BME280;66326;40.370;-3.718;2023-01-05T07:51:01;95997.31;;;17.30;73.50
57432;BME280;66326;40.370;-3.718;2023-01-05T07:53:30;95995.75;;;17.29;73.44
57432;BME280;66326;40.370;-3.718;2023-01-05T07:55:59;96001.25;;;17.29;73.44
57432;BME280;66326;40.370;-3.718;2023-01-05T07:58:27;95995.75;;;17.29;73.52
57432;BME280;66326;40.370;-3.718;2023-01-05T08:00:55;95990.25;;;17.29;73.66
57432;BME280;66326;40.370;-3.718;2023-01-05T08:03:22;95993.75;;;17.30;73.98
57432;BME280;66326;40.370;-3.718;2023-01-05T08:05:49;95985.91;;;17.28;73.61
57432;BME280;66326;40.370;-3.718;2023-01-05T08:08:16;95985.50;;;17.19;70.72
57432;BME280;66326;40.370;-3.718;2023-01-05T08:10:49;95984.72;;;17.15;72.61
57432;BME280;66326;40.370;-3.718;2023-01-05T08:13:16;95988.66;;;17.17;72.14
57432;BME280;66326;40.370;-3.718;2023-01-05T08:16:01;95981.56;;;17.20;72.27
57432;BME280;66326;40.370;-3.718;2023-01-05T08:18:28;95984.34;;;17.20;71.85
57432;BME280;66326;40.370;-3.718;2023-01-05T08:20:58;95980.00;;;17.19;72.46
57432;BME280;66326;40.370;-3.718;2023-01-05T08:23:26;95982.34;;;17.20;72.24
57432;BME280;66326;40.370;-3.718;2023-01-05T08:25:56;95982.38;;;17.09;71.83
57432;BME280;66326;40.370;-3.718;2023-01-05T08:28:28;95984.34;;;17.09;70.14
57432;BME280;66326;40.370;-3.718;2023-01-05T08:31:03;95978.00;;;16.90;64.54
57432;BME280;66326;40.370;-3.718;2023-01-05T08:33:30;95983.50;;;16.76;67.82
57432;BME280;66326;40.370;-3.718;2023-01-05T08:35:57;95980.72;;;16.72;69.45
57432;BME280;66326;40.370;-3.718;2023-01-05T08:38:24;95991.38;;;16.74;69.90
57432;BME280;66326;40.370;-3.718;2023-01-05T08:40:51;95981.53;;;16.76;70.50
57432;BME280;66326;40.370;-3.718;2023-01-05T08:43:18;95992.53;;;16.80;70.70
57432;BME280;66326;40.370;-3.718;2023-01-05T08:45:48;95990.19;;;16.82;70.10
57432;BME280;66326;40.370;-3.718;2023-01-05T08:48:18;95988.63;;;16.85;70.40
57432;BME280;66326;40.370;-3.718;2023-01-05T08:50:45;95981.94;;;16.86;70.53
57432;BME280;66326;40.370;-3.718;2023-01-05T08:53:12;95979.59;;;16.88;70.06
57432;BME280;66326;40.370;-3.718;2023-01-05T08:55:39;95983.13;;;16.88;69.89
57432;BME280;66326;40.370;-3.718;2023-01-05T08:58:06;95981.94;;;16.89;69.21
57432;BME280;66326;40.370;-3.718;2023-01-05T09:00:33;95988.22;;;16.90;69.30
57432;BME280;66326;40.370;-3.718;2023-01-05T09:03:00;95992.56;;;16.91;69.05
57432;BME280;66326;40.370;-3.718;2023-01-05T09:05:27;95995.72;;;16.89;68.88
57432;BME280;66326;40.370;-3.718;2023-01-05T09:07:54;95990.19;;;16.89;68.73
57432;BME280;66326;40.370;-3.718;2023-01-05T09:10:21;95987.44;;;16.89;68.98
57432;BME280;66326;40.370;-3.718;2023-01-05T09:12:48;95990.19;;;16.89;68.34
57432;BME280;66326;40.370;-3.718;2023-01-05T09:15:15;95992.19;;;16.89;68.25
57432;BME280;66326;40.370;-3.718;2023-01-05T09:17:41;95992.56;;;16.87;68.60
57432;BME280;66326;40.370;-3.718;2023-01-05T09:20:09;95992.56;;;16.87;67.95
57432;BME280;66326;40.370;-3.718;2023-01-05T09:22:36;95991.78;;;16.87;68.20
57432;BME280;66326;40.370;-3.718;2023-01-05T09:25:03;95987.44;;;16.86;67.93
57432;BME280;66326;40.370;-3.718;2023-01-05T09:27:30;95985.47;;;16.86;67.73
57432;BME280;66326;40.370;-3.718;2023-01-05T09:29:57;95990.97;;;16.86;68.40
57432;BME280;66326;40.370;-3.718;2023-01-05T09:32:24;95996.88;;;16.85;68.21
57432;BME280;66326;40.370;-3.718;2023-01-05T09:34:51;95998.88;;;16.84;68.59
57432;BME280;66326;40.370;-3.718;2023-01-05T09:37:18;96000.41;;;16.85;68.39
57432;BME280;66326;40.370;-3.718;2023-01-05T09:39:46;96002.00;;;16.86;68.47
57432;BME280;66326;40.370;-3.718;2023-01-05T09:42:16;95999.25;;;16.86;68.16
57432;BME280;66326;40.370;-3.718;2023-01-05T09:44:51;95996.47;;;16.86;67.91
57432;BME280;66326;40.370;-3.718;2023-01-05T09:50:01;96005.56;;;16.87;68.43
57432;BME280;66326;40.370;-3.718;2023-01-05T09:52:28;95998.06;;;16.87;69.25
57432;BME280;66326;40.370;-3.718;2023-01-05T09:55:20;96001.22;;;16.89;69.05
57432;BME280;66326;40.370;-3.718;2023-01-05T09:58:04;95998.81;;;16.66;66.48
57432;BME280;66326;40.370;-3.718;2023-01-05T10:00:32;96003.56;;;16.73;70.14
57432;BME280;66326;40.370;-3.718;2023-01-05T10:03:07;96009.47;;;16.78;69.93
57432;BME280;66326;40.370;-3.718;2023-01-05T10:05:45;96006.31;;;16.80;70.20
57432;BME280;66326;40.370;-3.718;2023-01-05T10:08:23;96008.31;;;16.79;70.18
57432;BME280;66326;40.370;-3.718;2023-01-05T10:11:02;96003.97;;;16.82;70.38
57432;BME280;66326;40.370;-3.718;2023-01-05T10:14:16;96007.13;;;16.84;70.30
57432;BME280;66326;40.370;-3.718;2023-01-05T10:16:46;96005.16;;;16.85;70.49
57432;BME280;66326;40.370;-3.718;2023-01-05T10:19:28;96004.75;;;16.86;70.53
57432;BME280;66326;40.370;-3.718;2023-01-05T10:22:23;96003.56;;;16.87;70.57
57432;BME280;66326;40.370;-3.718;2023-01-05T10:30:59;96000.03;;;16.90;70.70
57432;BME280;66326;40.370;-3.718;2023-01-05T10:33:49;95998.88;;;16.91;71.13
57432;BME280;66326;40.370;-3.718;2023-01-05T10:44:33;95983.94;;;16.96;70.75
57432;BME280;66326;40.370;-3.718;2023-01-05T10:47:09;95987.47;;;16.97;70.35
57432;BME280;66326;40.370;-3.718;2023-01-05T10:49:37;95980.00;;;16.97;70.24
57432;BME280;66326;40.370;-3.718;2023-01-05T10:52:15;95981.56;;;16.98;70.54
57432;BME280;66326;40.370;-3.718;2023-01-05T10:54:58;95981.13;;;16.82;69.59
57432;BME280;66326;40.370;-3.718;2023-01-05T11:02:31;95972.88;;;16.82;69.00
57432;BME280;66326;40.370;-3.718;2023-01-05T11:07:54;95968.53;;;16.80;68.96
57432;BME280;66326;40.370;-3.718;2023-01-05T11:10:29;95965.78;;;16.80;69.06
57432;BME280;66326;40.370;-3.718;2023-01-05T11:13:05;95952.00;;;16.80;69.16
57432;BME280;66326;40.370;-3.718;2023-01-05T11:15:39;95962.25;;;16.80;68.97
57432;BME280;66326;40.370;-3.718;2023-01-05T11:18:23;95955.56;;;16.81;67.91
57432;BME280;66326;40.370;-3.718;2023-01-05T11:21:11;95948.09;;;16.82;68.26
57432;BME280;66326;40.370;-3.718;2023-01-05T11:24:02;95950.47;;;16.83;68.88
57432;BME280;66326;40.370;-3.718;2023-01-05T11:26:33;95935.91;;;16.83;68.37
57432;BME280;66326;40.370;-3.718;2023-01-05T11:34:45;95924.50;;;16.84;67.60
57432;BME280;66326;40.370;-3.718;2023-01-05T11:37:28;95916.25;;;16.84;67.26
57432;BME280;66326;40.370;-3.718;2023-01-05T11:39:58;95914.25;;;16.81;66.12
57432;BME280;66326;40.370;-3.718;2023-01-05T11:42:27;95912.28;;;16.82;63.53
57432;BME280;66326;40.370;-3.718;2023-01-05T11:44:58;95916.63;;;16.75;65.43
57432;BME280;66326;40.370;-3.718;2023-01-05T11:47:31;95904.44;;;16.76;65.48
57432;BME280;66326;40.370;-3.718;2023-01-05T11:52:44;95895.78;;;16.74;61.81
57432;BME280;66326;40.370;-3.718;2023-01-05T11:55:40;95888.31;;;16.71;62.28
57432;BME280;66326;40.370;-3.718;2023-01-05T12:03:46;95888.31;;;16.71;61.37
57432;BME280;66326;40.370;-3.718;2023-01-05T12:16:56;95861.94;;;16.74;64.47
57432;BME280;66326;40.370;-3.718;2023-01-05T12:19:39;95854.09;;;16.76;64.57
57432;BME280;66326;40.370;-3.718;2023-01-05T12:30:25;95841.50;;;16.78;64.07
57432;BME280;66326;40.370;-3.718;2023-01-05T12:41:53;95821.78;;;16.87;65.31
57432;BME280;66326;40.370;-3.718;2023-01-05T12:47:27;95822.22;;;16.93;66.08
57432;BME280;66326;40.370;-3.718;2023-01-05T12:52:45;95810.03;;;16.94;67.64
57432;BME280;66326;40.370;-3.718;2023-01-05T12:55:22;95811.59;;;16.95;67.37
57432;BME280;66326;40.370;-3.718;2023-01-05T12:57:56;95807.66;;;16.96;66.97
57432;BME280;66326;40.370;-3.718;2023-01-05T13:00:30;95797.81;;;16.95;66.47
57432;BME280;66326;40.370;-3.718;2023-01-05T13:03:07;95799.41;;;16.96;66.54
57432;BME280;66326;40.370;-3.718;2023-01-05T13:06:01;95792.31;;;16.99;66.29
57432;BME280;66326;40.370;-3.718;2023-01-05T13:08:44;95792.31;;;16.99;66.44
57432;BME280;66326;40.370;-3.718;2023-01-05T13:11:24;95784.03;;;16.99;66.34
57432;BME280;66326;40.370;-3.718;2023-01-05T13:13:59;95777.34;;;17.00;66.29
57432;BME280;66326;40.370;-3.718;2023-01-05T13:16:35;95776.16;;;17.01;66.34
57432;BME280;66326;40.370;-3.718;2023-01-05T13:21:41;95764.75;;;17.02;66.16
57432;BME280;66326;40.370;-3.718;2023-01-05T13:27:11;95759.63;;;17.04;66.07
57432;BME280;66326;40.370;-3.718;2023-01-05T13:29:42;95751.38;;;17.04;66.18
57432;BME280;66326;40.370;-3.718;2023-01-05T13:57:20;95716.50;;;16.40;56.82
57432;BME280;66326;40.370;-3.718;2023-01-05T14:00:18;95710.22;;;16.25;57.48
57432;BME280;66326;40.370;-3.718;2023-01-05T14:05:49;95705.13;;;16.05;56.40
57432;BME280;66326;40.370;-3.718;2023-01-05T14:08:24;95695.69;;;15.95;55.58
57432;BME280;66326;40.370;-3.718;2023-01-05T14:11:16;95698.84;;;16.05;60.63
57432;BME280;66326;40.370;-3.718;2023-01-05T14:24:36;95680.28;;;16.56;62.29
57432;BME280;66326;40.370;-3.718;2023-01-05T14:27:19;95677.91;;;16.61;62.34
57432;BME280;66326;40.370;-3.718;2023-01-05T14:32:32;95671.56;;;16.72;62.73
57432;BME280;66326;40.370;-3.718;2023-01-05T14:35:07;95671.56;;;16.75;62.39
57432;BME280;66326;40.370;-3.718;2023-01-05T14:38:37;95673.53;;;16.78;62.60
57432;BME280;66326;40.370;-3.718;2023-01-05T14:40:40;95668.78;;;16.83;62.96
57432;BME280;66326;40.370;-3.718;2023-01-05T14:48:32;95657.34;;;16.91;62.96
57432;BME280;66326;40.370;-3.718;2023-01-05T14:51:16;95653.81;;;16.94;62.80
57432;BME280;66326;40.370;-3.718;2023-01-05T14:53:47;95653.00;;;16.98;63.23
57432;BME280;66326;40.370;-3.718;2023-01-05T14:56:26;95651.41;;;17.00;63.30
57432;BME280;66326;40.370;-3.718;2023-01-05T14:58:57;95653.00;;;17.01;63.93
57432;BME280;66326;40.370;-3.718;2023-01-05T15:01:47;95645.13;;;17.00;62.78
57432;BME280;66326;40.370;-3.718;2023-01-05T15:04:29;95645.59;;;16.80;57.17
57432;BME280;66326;40.370;-3.718;2023-01-05T15:15:41;95640.22;;;16.37;58.42
57432;BME280;66326;40.370;-3.718;2023-01-05T15:18:27;95631.94;;;16.44;59.41
57432;BME280;66326;40.370;-3.718;2023-01-05T15:21:13;95643.31;;;16.53;60.44
57432;BME280;66326;40.370;-3.718;2023-01-05T15:26:39;95646.00;;;16.68;61.98
57432;BME280;66326;40.370;-3.718;2023-01-05T15:33:11;95631.44;;;16.74;63.27
57432;BME280;66326;40.370;-3.718;2023-01-05T15:35:17;95624.31;;;16.80;63.69
57432;BME280;66326;40.370;-3.718;2023-01-05T15:37:46;95628.28;;;16.83;64.29
57432;BME280;66326;40.370;-3.718;2023-01-05T15:42:42;95629.41;;;16.89;64.14
57432;BME280;66326;40.370;-3.718;2023-01-05T15:45:17;95630.56;;;16.92;64.59
57432;BME280;66326;40.370;-3.718;2023-01-05T15:47:45;95624.69;;;16.93;64.80
57432;BME280;66326;40.370;-3.718;2023-01-05T15:50:19;95628.63;;;16.96;65.24
57432;BME280;66326;40.370;-3.718;2023-01-05T15:55:19;95622.72;;;16.98;63.50
57432;BME280;66326;40.370;-3.718;2023-01-05T15:58:03;95632.94;;;17.01;64.00
57432;BME280;66326;40.370;-3.718;2023-01-05T16:00:39;95626.63;;;17.00;62.89
57432;BME280;66326;40.370;-3.718;2023-01-05T16:03:23;95628.19;;;17.01;63.99
57432;BME280;66326;40.370;-3.718;2023-01-05T16:05:57;95629.78;;;17.02;63.82